sensor_id;sensor_type;location;lat;lon;timestamp;pressure;altitude;pressure_sealevel;temperature;humidity
1726;BME280;41776;48.260;8.928;2023-08-06T00:01:58;52062.19;;;-145.69;66.20
1726;BME280;41776;48.260;8.928;2023-08-06T00:04:25;52032.47;;;-145.69;66.43
1726;BME280;41776;48.260;8.928;2023-08-06T00:06:51;52050.31;;;-145.69;66.15
1726;BME280;41776;48.260;8.928;2023-08-06T00:09:18;52036.44;;;-145.69;65.63
1726;BME280;41776;48.260;8.928;2023-08-06T00:11:46;52036.44;;;-145.69;65.51
1726;BME280;41776;48.260;8.928;2023-08-06T00:14:12;51990.91;;;-145.69;66.09
1726;BME280;41776;48.260;8.928;2023-08-06T00:16:43;52056.25;;;-145.69;65.73
1726;BME280;41776;48.260;8.928;2023-08-06T00:19:09;52072.09;;;-145.69;66.19
1726;BME280;41776;48.260;8.928;2023-08-06T00:21:37;52026.53;;;-145.69;66.44
1726;BME280;41776;48.260;8.928;2023-08-06T00:24:03;52064.16;;;-145.69;66.08
1726;BME280;41776;48.260;8.928;2023-08-06T00:26:30;52038.44;;;-145.69;67.30
1726;BME280;41776;48.260;8.928;2023-08-06T00:28:58;52072.09;;;-145.69;66.78
1726;BME280;41776;48.260;8.928;2023-08-06T00:31:25;52044.38;;;-145.69;67.39
1726;BME280;41776;48.260;8.928;2023-08-06T00:33:51;52064.16;;;-145.69;67.53
1726;BME280;41776;48.260;8.928;2023-08-06T00:36:18;52040.41;;;-145.69;66.50
1726;BME280;41776;48.260;8.928;2023-08-06T00:38:44;52052.28;;;-145.69;66.28
1726;BME280;41776;48.260;8.928;2023-08-06T00:41:11;52064.16;;;-145.69;66.55
1726;BME280;41776;48.260;8.928;2023-08-06T00:43:37;52048.31;;;-145.69;66.68
1726;BME280;41776;48.260;8.928;2023-08-06T00:46:05;52034.47;;;-145.69;66.62
1726;BME280;41776;48.260;8.928;2023-08-06T00:48:32;52054.25;;;-145.69;67.73
1726;BME280;41776;48.260;8.928;2023-08-06T00:50:59;52070.09;;;-145.69;67.85
1726;BME280;41776;48.260;8.928;2023-08-06T00:53:26;52083.97;;;-145.69;68.00
1726;BME280;41776;48.260;8.928;2023-08-06T00:55:53;52064.16;;;-145.69;68.59
1726;BME280;41776;48.260;8.928;2023-08-06T00:58:19;52048.31;;;-145.69;67.92
1726;BME280;41776;48.260;8.928;2023-08-06T01:00:46;52028.53;;;-145.69;67.31
1726;BME280;41776;48.260;8.928;2023-08-06T01:03:14;52060.22;;;-145.69;66.55
1726;BME280;41776;48.260;8.928;2023-08-06T01:05:41;52044.38;;;-145.69;65.29
1726;BME280;41776;48.260;8.928;2023-08-06T01:08:21;52020.59;;;-145.69;64.45
1726;BME280;41776;48.260;8.928;2023-08-06T01:11:01;52028.53;;;-145.69;63.89
1726;BME280;41776;48.260;8.928;2023-08-06T01:13:34;51996.84;;;-145.69;63.73
1726;BME280;41776;48.260;8.928;2023-08-06T01:16:03;52030.50;;;-145.69;64.29
1726;BME280;41776;48.260;8.928;2023-08-06T01:18:32;52036.44;;;-145.69;63.52
1726;BME280;41776;48.260;8.928;2023-08-06T01:21:00;52000.81;;;-145.69;64.40
1726;BME280;41776;48.260;8.928;2023-08-06T01:23:26;52016.66;;;-145.69;64.22
1726;BME280;41776;48.260;8.928;2023-08-06T01:25:57;52042.38;;;-145.69;63.95
1726;BME280;41776;48.260;8.928;2023-08-06T01:28:34;52034.47;;;-145.69;63.61
1726;BME280;41776;48.260;8.928;2023-08-06T01:31:07;52072.09;;;-145.69;63.38
1726;BME280;41776;48.260;8.928;2023-08-06T01:33:39;52034.47;;;-145.69;63.71
1726;BME280;41776;48.260;8.928;2023-08-06T01:36:08;52056.25;;;-145.69;64.41
1726;BME280;41776;48.260;8.928;2023-08-06T01:38:35;52050.31;;;-145.69;65.67
1726;BME280;41776;48.260;8.928;2023-08-06T01:41:02;52056.25;;;-145.69;66.86
1726;BME280;41776;48.260;8.928;2023-08-06T01:43:28;52064.16;;;-145.69;67.45
1726;BME280;41776;48.260;8.928;2023-08-06T01:45:55;52066.16;;;-145.69;67.67
1726;BME280;41776;48.260;8.928;2023-08-06T01:48:21;52064.16;;;-145.69;67.60
1726;BME280;41776;48.260;8.928;2023-08-06T01:50:48;52052.28;;;-145.69;68.05
1726;BME280;41776;48.260;8.928;2023-08-06T01:53:15;52032.47;;;-145.69;67.78
1726;BME280;41776;48.260;8.928;2023-08-06T01:55:42;52048.31;;;-145.69;67.90
1726;BME280;41776;48.260;8.928;2023-08-06T01:58:13;52054.25;;;-145.69;68.05
1726;BME280;41776;48.260;8.928;2023-08-06T02:00:40;52052.28;;;-145.69;69.01
1726;BME280;41776;48.260;8.928;2023-08-06T02:03:06;52060.22;;;-145.69;69.17
1726;BME280;41776;48.260;8.928;2023-08-06T02:05:33;52076.03;;;-145.69;69.11
1726;BME280;41776;48.260;8.928;2023-08-06T02:07:59;52097.84;;;-145.69;69.49
1726;BME280;41776;48.260;8.928;2023-08-06T02:10:27;52036.44;;;-145.69;69.36
1726;BME280;41776;48.260;8.928;2023-08-06T02:12:54;52050.31;;;-145.69;68.94
1726;BME280;41776;48.260;8.928;2023-08-06T02:15:20;52064.16;;;-145.69;67.53
1726;BME280;41776;48.260;8.928;2023-08-06T02:17:47;52052.28;;;-145.69;69.33
1726;BME280;41776;48.260;8.928;2023-08-06T02:20:13;52052.28;;;-145.69;68.42
1726;BME280;41776;48.260;8.928;2023-08-06T02:22:40;52044.38;;;-145.69;70.18
1726;BME280;41776;48.260;8.928;2023-08-06T02:25:07;52042.38;;;-145.69;68.72
1726;BME280;41776;48.260;8.928;2023-08-06T02:27:35;52024.56;;;-145.69;68.34
1726;BME280;41776;48.260;8.928;2023-08-06T02:30:01;52054.25;;;-145.69;68.10
1726;BME280;41776;48.260;8.928;2023-08-06T02:32:29;52060.22;;;-145.69;69.23
1726;BME280;41776;48.260;8.928;2023-08-06T02:34:57;52056.25;;;-145.69;68.87
1726;BME280;41776;48.260;8.928;2023-08-06T02:37:24;52022.59;;;-145.69;68.83
1726;BME280;41776;48.260;8.928;2023-08-06T02:39:50;52064.16;;;-145.69;68.47
1726;BME280;41776;48.260;8.928;2023-08-06T02:42:17;52062.19;;;-145.69;67.83
1726;BME280;41776;48.260;8.928;2023-08-06T02:44:45;52062.19;;;-145.69;66.10
1726;BME280;41776;48.260;8.928;2023-08-06T02:47:11;52032.47;;;-145.69;64.89
1726;BME280;41776;48.260;8.928;2023-08-06T02:49:38;52070.09;;;-145.69;66.81
1726;BME280;41776;48.260;8.928;2023-08-06T02:52:05;52020.59;;;-145.69;66.14
1726;BME280;41776;48.260;8.928;2023-08-06T02:54:32;52018.63;;;-145.69;65.70
1726;BME280;41776;48.260;8.928;2023-08-06T02:56:59;52038.44;;;-145.69;67.05
1726;BME280;41776;48.260;8.928;2023-08-06T02:59:25;52072.09;;;-145.69;67.44
1726;BME280;41776;48.260;8.928;2023-08-06T03:01:53;52044.38;;;-145.69;68.05
1726;BME280;41776;48.260;8.928;2023-08-06T03:04:19;52046.34;;;-145.69;67.83
1726;BME280;41776;48.260;8.928;2023-08-06T03:06:46;52078.03;;;-145.69;67.74
1726;BME280;41776;48.260;8.928;2023-08-06T03:09:12;52032.47;;;-145.69;66.39
1726;BME280;41776;48.260;8.928;2023-08-06T03:11:38;52048.31;;;-145.69;66.58
1726;BME280;41776;48.260;8.928;2023-08-06T03:14:04;52040.41;;;-145.69;66.95
1726;BME280;41776;48.260;8.928;2023-08-06T03:16:33;52068.13;;;-145.69;67.05
1726;BME280;41776;48.260;8.928;2023-08-06T03:19:00;52008.72;;;-145.69;66.89
1726;BME280;41776;48.260;8.928;2023-08-06T03:21:27;52076.03;;;-145.69;67.17
1726;BME280;41776;48.260;8.928;2023-08-06T03:23:54;52062.19;;;-145.69;67.27
1726;BME280;41776;48.260;8.928;2023-08-06T03:26:20;52044.38;;;-145.69;68.63
1726;BME280;41776;48.260;8.928;2023-08-06T03:28:50;52004.75;;;-145.69;67.82
1726;BME280;41776;48.260;8.928;2023-08-06T03:31:16;52020.59;;;-145.69;66.81
1726;BME280;41776;48.260;8.928;2023-08-06T03:33:46;52062.19;;;-145.69;71.37
1726;BME280;41776;48.260;8.928;2023-08-06T03:36:17;52062.19;;;-145.69;71.32
1726;BME280;41776;48.260;8.928;2023-08-06T03:38:49;52042.38;;;-145.69;72.59
1726;BME280;41776;48.260;8.928;2023-08-06T03:41:19;52024.56;;;-145.69;72.13
1726;BME280;41776;48.260;8.928;2023-08-06T03:43:46;52064.16;;;-145.69;72.62
1726;BME280;41776;48.260;8.928;2023-08-06T03:46:15;52056.25;;;-145.69;72.03
1726;BME280;41776;48.260;8.928;2023-08-06T03:48:42;52016.66;;;-145.69;71.68
1726;BME280;41776;48.260;8.928;2023-08-06T03:51:08;52012.69;;;-145.69;70.60
1726;BME280;41776;48.260;8.928;2023-08-06T03:53:36;52028.53;;;-145.69;70.23
1726;BME280;41776;48.260;8.928;2023-08-06T03:56:03;52044.38;;;-145.69;72.39
1726;BME280;41776;48.260;8.928;2023-08-06T03:58:30;52056.25;;;-145.69;73.02
1726;BME280;41776;48.260;8.928;2023-08-06T04:01:00;52036.44;;;-145.69;70.59
1726;BME280;41776;48.260;8.928;2023-08-06T04:03:26;51992.88;;;-145.69;70.25
1726;BME280;41776;48.260;8.928;2023-08-06T04:05:53;52030.50;;;-145.69;69.75
1726;BME280;41776;48.260;8.928;2023-08-06T04:08:25;52054.25;;;-145.69;69.68
1726;BME280;41776;48.260;8.928;2023-08-06T04:10:53;52050.31;;;-145.69;69.49
1726;BME280;41776;48.260;8.928;2023-08-06T04:13:20;52012.69;;;-145.69;69.71
1726;BME280;41776;48.260;8.928;2023-08-06T04:15:47;52056.25;;;-145.69;69.96
1726;BME280;41776;48.260;8.928;2023-08-06T04:18:13;52050.31;;;-145.69;69.88
1726;BME280;41776;48.260;8.928;2023-08-06T04:20:44;52036.44;;;-145.69;69.41
1726;BME280;41776;48.260;8.928;2023-08-06T04:23:11;52022.59;;;-145.69;69.77
1726;BME280;41776;48.260;8.928;2023-08-06T04:25:37;52054.25;;;-145.69;69.38
1726;BME280;41776;48.260;8.928;2023-08-06T04:28:06;52052.28;;;-145.69;69.51
1726;BME280;41776;48.260;8.928;2023-08-06T04:30:33;52030.50;;;-145.69;69.61
1726;BME280;41776;48.260;8.928;2023-08-06T04:32:59;52040.41;;;-145.69;68.34
1726;BME280;41776;48.260;8.928;2023-08-06T04:35:26;52050.31;;;-145.69;66.90
1726;BME280;41776;48.260;8.928;2023-08-06T04:37:54;52070.09;;;-145.69;66.53
1726;BME280;41776;48.260;8.928;2023-08-06T04:40:21;52026.53;;;-145.69;65.81
1726;BME280;41776;48.260;8.928;2023-08-06T04:42:47;52056.25;;;-145.69;65.69
1726;BME280;41776;48.260;8.928;2023-08-06T04:45:15;52064.16;;;-145.69;65.69
1726;BME280;41776;48.260;8.928;2023-08-06T04:47:42;52062.19;;;-145.69;66.07
1726;BME280;41776;48.260;8.928;2023-08-06T04:50:09;52036.44;;;-145.69;65.94
1726;BME280;41776;48.260;8.928;2023-08-06T04:52:38;52012.69;;;-145.69;65.56
1726;BME280;41776;48.260;8.928;2023-08-06T04:55:08;52060.22;;;-145.69;66.15
1726;BME280;41776;48.260;8.928;2023-08-06T04:57:34;52052.28;;;-145.69;65.95
1726;BME280;41776;48.260;8.928;2023-08-06T05:00:01;52052.28;;;-145.69;66.17
1726;BME280;41776;48.260;8.928;2023-08-06T05:02:29;52044.38;;;-145.69;65.63
1726;BME280;41776;48.260;8.928;2023-08-06T05:04:57;52024.56;;;-145.69;65.31
1726;BME280;41776;48.260;8.928;2023-08-06T05:07:24;52056.25;;;-145.69;64.05
1726;BME280;41776;48.260;8.928;2023-08-06T05:09:51;52048.31;;;-145.69;64.06
1726;BME280;41776;48.260;8.928;2023-08-06T05:12:17;52070.09;;;-145.69;63.52
1726;BME280;41776;48.260;8.928;2023-08-06T05:14:44;52044.38;;;-145.69;63.24
1726;BME280;41776;48.260;8.928;2023-08-06T05:17:10;52042.38;;;-145.69;63.24
1726;BME280;41776;48.260;8.928;2023-08-06T05:19:54;52016.66;;;-145.69;62.01
1726;BME280;41776;48.260;8.928;2023-08-06T05:22:22;52028.53;;;-145.69;63.01
1726;BME280;41776;48.260;8.928;2023-08-06T05:24:51;52026.53;;;-145.69;62.63
1726;BME280;41776;48.260;8.928;2023-08-06T05:27:18;52056.25;;;-145.69;62.53
1726;BME280;41776;48.260;8.928;2023-08-06T05:29:56;52026.53;;;-145.69;59.86
1726;BME280;41776;48.260;8.928;2023-08-06T05:32:26;52028.53;;;-145.69;60.69
1726;BME280;41776;48.260;8.928;2023-08-06T05:34:54;52034.47;;;-145.69;60.71
1726;BME280;41776;48.260;8.928;2023-08-06T05:37:22;52012.69;;;-145.69;60.65
1726;BME280;41776;48.260;8.928;2023-08-06T05:39:48;52040.41;;;-145.69;60.43
1726;BME280;41776;48.260;8.928;2023-08-06T05:42:17;52048.31;;;-145.69;60.53
1726;BME280;41776;48.260;8.928;2023-08-06T05:44:43;52020.59;;;-145.69;60.69
1726;BME280;41776;48.260;8.928;2023-08-06T05:47:10;52034.47;;;-145.69;59.86
1726;BME280;41776;48.260;8.928;2023-08-06T05:49:36;52018.63;;;-145.69;59.62
1726;BME280;41776;48.260;8.928;2023-08-06T05:52:05;52022.59;;;-145.69;58.82
1726;BME280;41776;48.260;8.928;2023-08-06T05:54:33;52002.78;;;-145.69;59.43
1726;BME280;41776;48.260;8.928;2023-08-06T05:57:00;52024.56;;;-145.69;59.08
1726;BME280;41776;48.260;8.928;2023-08-06T05:59:26;52020.59;;;-145.69;58.33
1726;BME280;41776;48.260;8.928;2023-08-06T06:01:53;52016.66;;;-145.69;57.77
1726;BME280;41776;48.260;8.928;2023-08-06T06:04:28;52028.53;;;-145.69;57.83
1726;BME280;41776;48.260;8.928;2023-08-06T06:06:54;52020.59;;;-145.69;58.18
1726;BME280;41776;48.260;8.928;2023-08-06T06:09:22;52038.44;;;-145.69;58.79
1726;BME280;41776;48.260;8.928;2023-08-06T06:11:50;52008.72;;;-145.69;58.53
1726;BME280;41776;48.260;8.928;2023-08-06T06:14:17;52000.81;;;-145.69;58.85
1726;BME280;41776;48.260;8.928;2023-08-06T06:16:47;52020.59;;;-145.69;58.18
1726;BME280;41776;48.260;8.928;2023-08-06T06:19:13;51982.97;;;-145.69;58.76
1726;BME280;41776;48.260;8.928;2023-08-06T06:21:40;52032.47;;;-145.69;58.09
1726;BME280;41776;48.260;8.928;2023-08-06T06:24:06;52004.75;;;-145.69;58.16
1726;BME280;41776;48.260;8.928;2023-08-06T06:26:34;52012.69;;;-145.69;58.38
1726;BME280;41776;48.260;8.928;2023-08-06T06:29:02;52020.59;;;-145.69;58.12
1726;BME280;41776;48.260;8.928;2023-08-06T06:31:29;52024.56;;;-145.69;58.08
1726;BME280;41776;48.260;8.928;2023-08-06T06:33:55;52034.47;;;-145.69;58.16
1726;BME280;41776;48.260;8.928;2023-08-06T06:36:22;52018.63;;;-145.69;57.43
1726;BME280;41776;48.260;8.928;2023-08-06T06:38:49;52016.66;;;-145.69;58.58
1726;BME280;41776;48.260;8.928;2023-08-06T06:41:16;51984.97;;;-145.69;58.33
1726;BME280;41776;48.260;8.928;2023-08-06T06:43:44;52026.53;;;-145.69;57.80
1726;BME280;41776;48.260;8.928;2023-08-06T06:46:11;52004.75;;;-145.69;58.02
1726;BME280;41776;48.260;8.928;2023-08-06T06:48:37;52004.75;;;-145.69;58.30
1726;BME280;41776;48.260;8.928;2023-08-06T06:51:04;52014.66;;;-145.69;57.56
1726;BME280;41776;48.260;8.928;2023-08-06T06:53:30;52016.66;;;-145.69;57.60
1726;BME280;41776;48.260;8.928;2023-08-06T06:56:02;52020.59;;;-145.69;56.82
1726;BME280;41776;48.260;8.928;2023-08-06T06:58:29;52032.47;;;-145.69;56.81
1726;BME280;41776;48.260;8.928;2023-08-06T07:00:57;52010.69;;;-145.69;56.70
1726;BME280;41776;48.260;8.928;2023-08-06T07:03:24;52016.66;;;-145.69;57.18
1726;BME280;41776;48.260;8.928;2023-08-06T07:05:51;52002.78;;;-145.69;57.50
1726;BME280;41776;48.260;8.928;2023-08-06T07:08:18;52026.53;;;-145.69;57.26
1726;BME280;41776;48.260;8.928;2023-08-06T07:10:47;52008.72;;;-145.69;58.13
1726;BME280;41776;48.260;8.928;2023-08-06T07:13:19;52040.41;;;-145.69;57.28
1726;BME280;41776;48.260;8.928;2023-08-06T07:15:47;52016.66;;;-145.69;58.25
1726;BME280;41776;48.260;8.928;2023-08-06T07:18:15;52018.63;;;-145.69;58.46
1726;BME280;41776;48.260;8.928;2023-08-06T07:20:47;51992.88;;;-145.69;57.45
1726;BME280;41776;48.260;8.928;2023-08-06T07:23:14;52016.66;;;-145.69;57.10
1726;BME280;41776;48.260;8.928;2023-08-06T07:25:43;52016.66;;;-145.69;56.61
1726;BME280;41776;48.260;8.928;2023-08-06T07:28:09;52000.81;;;-145.69;56.62
1726;BME280;41776;48.260;8.928;2023-08-06T07:30:38;51996.84;;;-145.69;56.40
1726;BME280;41776;48.260;8.928;2023-08-06T07:33:05;52024.56;;;-145.69;56.55
1726;BME280;41776;48.260;8.928;2023-08-06T07:35:33;52002.78;;;-145.69;55.57
1726;BME280;41776;48.260;8.928;2023-08-06T07:38:00;51988.91;;;-145.69;56.12
1726;BME280;41776;48.260;8.928;2023-08-06T07:40:27;52016.66;;;-145.69;54.96
1726;BME280;41776;48.260;8.928;2023-08-06T07:42:53;51990.91;;;-145.69;56.53
1726;BME280;41776;48.260;8.928;2023-08-06T07:45:23;52000.81;;;-145.69;58.11
1726;BME280;41776;48.260;8.928;2023-08-06T07:47:52;52016.66;;;-145.69;59.24
1726;BME280;41776;48.260;8.928;2023-08-06T07:50:21;52026.53;;;-145.69;59.34
1726;BME280;41776;48.260;8.928;2023-08-06T07:52:49;52004.75;;;-145.69;59.24
1726;BME280;41776;48.260;8.928;2023-08-06T07:55:18;52018.63;;;-145.69;60.49
1726;BME280;41776;48.260;8.928;2023-08-06T07:57:45;52044.38;;;-145.69;61.51
1726;BME280;41776;48.260;8.928;2023-08-06T08:00:11;52020.59;;;-145.69;61.51
1726;BME280;41776;48.260;8.928;2023-08-06T08:02:38;52038.44;;;-145.69;62.24
1726;BME280;41776;48.260;8.928;2023-08-06T08:05:05;52006.75;;;-145.69;62.11
1726;BME280;41776;48.260;8.928;2023-08-06T08:07:32;52052.28;;;-145.69;61.69
1726;BME280;41776;48.260;8.928;2023-08-06T08:10:00;52012.69;;;-145.69;60.44
1726;BME280;41776;48.260;8.928;2023-08-06T08:12:27;52032.47;;;-145.69;61.80
1726;BME280;41776;48.260;8.928;2023-08-06T08:14:56;52016.66;;;-145.69;60.68
1726;BME280;41776;48.260;8.928;2023-08-06T08:17:23;52014.66;;;-145.69;60.86
1726;BME280;41776;48.260;8.928;2023-08-06T08:19:50;52022.59;;;-145.69;60.65
1726;BME280;41776;48.260;8.928;2023-08-06T08:22:16;52028.53;;;-145.69;60.93
1726;BME280;41776;48.260;8.928;2023-08-06T08:24:43;52026.53;;;-145.69;61.31
1726;BME280;41776;48.260;8.928;2023-08-06T08:27:10;52014.66;;;-145.69;60.16
1726;BME280;41776;48.260;8.928;2023-08-06T08:29:37;52016.66;;;-145.69;59.76
1726;BME280;41776;48.260;8.928;2023-08-06T08:32:04;52020.59;;;-145.69;58.79
1726;BME280;41776;48.260;8.928;2023-08-06T08:34:34;52018.63;;;-145.69;58.28
1726;BME280;41776;48.260;8.928;2023-08-06T08:37:00;52020.59;;;-145.69;57.10
1726;BME280;41776;48.260;8.928;2023-08-06T08:39:27;51981.00;;;-145.69;55.40
1726;BME280;41776;48.260;8.928;2023-08-06T08:41:53;52004.75;;;-145.69;54.33
1726;BME280;41776;48.260;8.928;2023-08-06T08:44:21;51986.94;;;-145.69;53.44
1726;BME280;41776;48.260;8.928;2023-08-06T08:46:48;52010.69;;;-145.69;53.86
1726;BME280;41776;48.260;8.928;2023-08-06T08:49:15;51979.03;;;-145.69;54.94
1726;BME280;41776;48.260;8.928;2023-08-06T08:51:43;51959.22;;;-145.69;54.74
1726;BME280;41776;48.260;8.928;2023-08-06T08:54:13;52014.66;;;-145.69;55.24
1726;BME280;41776;48.260;8.928;2023-08-06T08:56:41;52016.66;;;-145.69;56.01
1726;BME280;41776;48.260;8.928;2023-08-06T08:59:11;51982.97;;;-145.69;56.10
1726;BME280;41776;48.260;8.928;2023-08-06T09:01:40;52012.69;;;-145.69;58.32
1726;BME280;41776;48.260;8.928;2023-08-06T09:04:09;52038.44;;;-145.69;61.31
1726;BME280;41776;48.260;8.928;2023-08-06T09:06:38;52012.69;;;-145.69;62.37
1726;BME280;41776;48.260;8.928;2023-08-06T09:09:08;52044.38;;;-145.69;61.88
1726;BME280;41776;48.260;8.928;2023-08-06T09:11:38;52016.66;;;-145.69;61.03
1726;BME280;41776;48.260;8.928;2023-08-06T09:14:06;52036.44;;;-145.69;61.48
1726;BME280;41776;48.260;8.928;2023-08-06T09:16:34;52006.75;;;-145.69;61.14
1726;BME280;41776;48.260;8.928;2023-08-06T09:19:08;52000.81;;;-145.69;60.21
1726;BME280;41776;48.260;8.928;2023-08-06T09:21:37;52024.56;;;-145.69;60.44
1726;BME280;41776;48.260;8.928;2023-08-06T09:24:07;52022.59;;;-145.69;60.43
1726;BME280;41776;48.260;8.928;2023-08-06T09:26:34;52028.53;;;-145.69;61.30
1726;BME280;41776;48.260;8.928;2023-08-06T09:29:00;52010.69;;;-145.69;60.19
1726;BME280;41776;48.260;8.928;2023-08-06T09:31:32;51994.88;;;-145.69;59.74
1726;BME280;41776;48.260;8.928;2023-08-06T09:33:59;52020.59;;;-145.69;60.36
1726;BME280;41776;48.260;8.928;2023-08-06T09:36:27;52034.47;;;-145.69;60.19
1726;BME280;41776;48.260;8.928;2023-08-06T09:38:54;52018.63;;;-145.69;59.16
1726;BME280;41776;48.260;8.928;2023-08-06T09:41:26;52004.75;;;-145.69;59.42
1726;BME280;41776;48.260;8.928;2023-08-06T09:43:53;52020.59;;;-145.69;59.56
1726;BME280;41776;48.260;8.928;2023-08-06T09:46:19;52026.53;;;-145.69;60.42
1726;BME280;41776;48.260;8.928;2023-08-06T09:48:47;52014.66;;;-145.69;60.71
1726;BME280;41776;48.260;8.928;2023-08-06T09:51:14;52048.31;;;-145.69;60.13
1726;BME280;41776;48.260;8.928;2023-08-06T09:53:42;52046.34;;;-145.69;61.22
1726;BME280;41776;48.260;8.928;2023-08-06T09:56:10;52016.66;;;-145.69;61.71
1726;BME280;41776;48.260;8.928;2023-08-06T09:58:39;52044.38;;;-145.69;61.17
1726;BME280;41776;48.260;8.928;2023-08-06T10:01:06;52016.66;;;-145.69;62.12
1726;BME280;41776;48.260;8.928;2023-08-06T10:03:33;52044.38;;;-145.69;63.54
1726;BME280;41776;48.260;8.928;2023-08-06T10:06:00;52028.53;;;-145.69;65.42
1726;BME280;41776;48.260;8.928;2023-08-06T10:08:31;52048.31;;;-145.69;66.72
1726;BME280;41776;48.260;8.928;2023-08-06T10:10:59;52040.41;;;-145.69;65.18
1726;BME280;41776;48.260;8.928;2023-08-06T10:13:27;52032.47;;;-145.69;66.20
1726;BME280;41776;48.260;8.928;2023-08-06T10:15:54;52085.94;;;-145.69;66.36
1726;BME280;41776;48.260;8.928;2023-08-06T10:18:21;52040.41;;;-145.69;67.96
1726;BME280;41776;48.260;8.928;2023-08-06T10:20:48;52064.16;;;-145.69;67.90
1726;BME280;41776;48.260;8.928;2023-08-06T10:23:14;52072.09;;;-145.69;65.66
1726;BME280;41776;48.260;8.928;2023-08-06T10:25:42;52032.47;;;-145.69;66.04
1726;BME280;41776;48.260;8.928;2023-08-06T10:28:11;52008.72;;;-145.69;66.75
1726;BME280;41776;48.260;8.928;2023-08-06T10:30:44;52020.59;;;-145.69;65.58
1726;BME280;41776;48.260;8.928;2023-08-06T10:33:11;52012.69;;;-145.69;66.21
1726;BME280;41776;48.260;8.928;2023-08-06T10:35:40;52024.56;;;-145.69;65.36
1726;BME280;41776;48.260;8.928;2023-08-06T10:38:10;52010.69;;;-145.69;64.59
1726;BME280;41776;48.260;8.928;2023-08-06T10:40:37;52034.47;;;-145.69;63.51
1726;BME280;41776;48.260;8.928;2023-08-06T10:43:05;52014.66;;;-145.69;60.74
1726;BME280;41776;48.260;8.928;2023-08-06T10:45:36;51969.13;;;-145.69;60.21
1726;BME280;41776;48.260;8.928;2023-08-06T10:48:04;52014.66;;;-145.69;60.84
1726;BME280;41776;48.260;8.928;2023-08-06T10:50:30;52024.56;;;-145.69;61.15
1726;BME280;41776;48.260;8.928;2023-08-06T10:53:03;52040.41;;;-145.69;58.78
1726;BME280;41776;48.260;8.928;2023-08-06T10:55:31;52002.78;;;-145.69;59.11
1726;BME280;41776;48.260;8.928;2023-08-06T10:57:57;51992.88;;;-145.69;58.53
1726;BME280;41776;48.260;8.928;2023-08-06T11:00:24;52008.72;;;-145.69;57.16
1726;BME280;41776;48.260;8.928;2023-08-06T11:02:53;51992.88;;;-145.69;56.71
1726;BME280;41776;48.260;8.928;2023-08-06T11:05:20;52008.72;;;-145.69;56.94
1726;BME280;41776;48.260;8.928;2023-08-06T11:07:46;52016.66;;;-145.69;57.98
1726;BME280;41776;48.260;8.928;2023-08-06T11:10:14;51982.97;;;-145.69;57.46
1726;BME280;41776;48.260;8.928;2023-08-06T11:12:41;52016.66;;;-145.69;58.66
1726;BME280;41776;48.260;8.928;2023-08-06T11:15:08;52014.66;;;-145.69;58.16
1726;BME280;41776;48.260;8.928;2023-08-06T11:17:35;51992.88;;;-145.69;58.96
1726;BME280;41776;48.260;8.928;2023-08-06T11:20:04;52032.47;;;-145.69;58.49
1726;BME280;41776;48.260;8.928;2023-08-06T11:22:31;52020.59;;;-145.69;58.63
1726;BME280;41776;48.260;8.928;2023-08-06T11:24:58;52008.72;;;-145.69;58.68
1726;BME280;41776;48.260;8.928;2023-08-06T11:27:26;52008.72;;;-145.69;58.96
1726;BME280;41776;48.260;8.928;2023-08-06T11:29:53;51996.84;;;-145.69;59.56
1726;BME280;41776;48.260;8.928;2023-08-06T11:32:20;52004.75;;;-145.69;58.71
1726;BME280;41776;48.260;8.928;2023-08-06T11:34:46;52006.75;;;-145.69;56.54
1726;BME280;41776;48.260;8.928;2023-08-06T11:37:14;52024.56;;;-145.69;56.54
1726;BME280;41776;48.260;8.928;2023-08-06T11:39:46;51998.81;;;-145.69;55.54
1726;BME280;41776;48.260;8.928;2023-08-06T11:42:14;52008.72;;;-145.69;57.03
1726;BME280;41776;48.260;8.928;2023-08-06T11:44:41;52010.69;;;-145.69;57.75
1726;BME280;41776;48.260;8.928;2023-08-06T11:47:12;51988.91;;;-145.69;57.70
1726;BME280;41776;48.260;8.928;2023-08-06T11:49:41;52028.53;;;-145.69;60.79
1726;BME280;41776;48.260;8.928;2023-08-06T11:52:19;52016.66;;;-145.69;59.00
1726;BME280;41776;48.260;8.928;2023-08-06T11:54:47;52020.59;;;-145.69;59.76
1726;BME280;41776;48.260;8.928;2023-08-06T11:57:13;52056.25;;;-145.69;64.58
1726;BME280;41776;48.260;8.928;2023-08-06T11:59:40;52042.38;;;-145.69;67.87
1726;BME280;41776;48.260;8.928;2023-08-06T12:02:09;52044.38;;;-145.69;69.46
1726;BME280;41776;48.260;8.928;2023-08-06T12:04:58;52083.97;;;-145.69;69.34
1726;BME280;41776;48.260;8.928;2023-08-06T12:07:28;52076.03;;;-145.69;72.00
1726;BME280;41776;48.260;8.928;2023-08-06T12:09:55;52101.78;;;-145.69;71.79
1726;BME280;41776;48.260;8.928;2023-08-06T12:12:22;52078.03;;;-145.69;72.43
1726;BME280;41776;48.260;8.928;2023-08-06T12:14:48;52082.00;;;-145.69;71.87
1726;BME280;41776;48.260;8.928;2023-08-06T12:17:15;52082.00;;;-145.69;70.43
1726;BME280;41776;48.260;8.928;2023-08-06T12:19:41;52060.22;;;-145.69;68.55
1726;BME280;41776;48.260;8.928;2023-08-06T12:22:08;52068.13;;;-145.69;68.64
1726;BME280;41776;48.260;8.928;2023-08-06T12:24:36;52070.09;;;-145.69;68.61
1726;BME280;41776;48.260;8.928;2023-08-06T12:27:03;52044.38;;;-145.69;69.54
1726;BME280;41776;48.260;8.928;2023-08-06T12:29:29;52082.00;;;-145.69;71.58
1726;BME280;41776;48.260;8.928;2023-08-06T12:31:56;52066.16;;;-145.69;70.52
1726;BME280;41776;48.260;8.928;2023-08-06T12:34:22;52064.16;;;-145.69;70.11
1726;BME280;41776;48.260;8.928;2023-08-06T12:36:49;52099.81;;;-145.69;69.57
1726;BME280;41776;48.260;8.928;2023-08-06T12:39:15;52050.31;;;-145.69;69.24
1726;BME280;41776;48.260;8.928;2023-08-06T12:41:43;52072.09;;;-145.69;67.79
1726;BME280;41776;48.260;8.928;2023-08-06T12:44:11;52072.09;;;-145.69;67.77
1726;BME280;41776;48.260;8.928;2023-08-06T12:46:37;52038.44;;;-145.69;66.76
1726;BME280;41776;48.260;8.928;2023-08-06T12:49:04;52072.09;;;-145.69;65.54
1726;BME280;41776;48.260;8.928;2023-08-06T12:51:30;52056.25;;;-145.69;65.01
1726;BME280;41776;48.260;8.928;2023-08-06T12:53:58;52042.38;;;-145.69;64.02